sensor_id;sensor_type;location;lat;lon;timestamp;temperature;humidity
17307;DHT22;8771;48.048;7.682;2023-02-15T07:54:18;2.70;79.90
17307;DHT22;8771;48.048;7.682;2023-02-15T07:59:26;2.80;79.80
17307;DHT22;8771;48.048;7.682;2023-02-15T08:04:37;2.80;80.00
17307;DHT22;8771;48.048;7.682;2023-02-15T08:09:48;2.80;80.00
17307;DHT22;8771;48.048;7.682;2023-02-15T08:14:56;2.90;80.00
17307;DHT22;8771;48.048;7.682;2023-02-15T08:20:07;2.90;80.00
17307;DHT22;8771;48.048;7.682;2023-02-15T08:25:12;3.00;79.90
17307;DHT22;8771;48.048;7.682;2023-02-15T08:30:17;3.10;79.90
17307;DHT22;8771;48.048;7.682;2023-02-15T08:35:22;3.10;79.90
17307;DHT22;8771;48.048;7.682;2023-02-15T08:40:33;3.20;79.90
17307;DHT22;8771;48.048;7.682;2023-02-15T08:45:48;3.20;79.90
17307;DHT22;8771;48.048;7.682;2023-02-15T08:51:10;3.30;79.90
17307;DHT22;8771;48.048;7.682;2023-02-15T08:56:23;3.30;79.80
17307;DHT22;8771;48.048;7.682;2023-02-15T09:01:32;3.30;79.80
17307;DHT22;8771;48.048;7.682;2023-02-15T09:06:35;3.30;79.80
17307;DHT22;8771;48.048;7.682;2023-02-15T09:11:40;3.40;79.80
17307;DHT22;8771;48.048;7.682;2023-02-15T09:16:47;3.30;79.80
17307;DHT22;8771;48.048;7.682;2023-02-15T09:21:52;3.40;79.90
17307;DHT22;8771;48.048;7.682;2023-02-15T09:27:03;3.40;79.80
17307;DHT22;8771;48.048;7.682;2023-02-15T09:32:06;3.50;79.80
17307;DHT22;8771;48.048;7.682;2023-02-15T09:37:16;3.50;79.70
17307;DHT22;8771;48.048;7.682;2023-02-15T09:42:51;3.60;79.70
17307;DHT22;8771;48.048;7.682;2023-02-15T09:53:40;3.90;79.50
17307;DHT22;8771;48.048;7.682;2023-02-15T09:58:53;4.00;79.30
17307;DHT22;8771;48.048;7.682;2023-02-15T10:10:16;4.20;79.10
17307;DHT22;8771;48.048;7.682;2023-02-15T10:21:10;4.50;79.10
17307;DHT22;8771;48.048;7.682;2023-02-15T10:26:34;4.60;79.00
17307;DHT22;8771;48.048;7.682;2023-02-15T10:31:54;4.70;79.00
17307;DHT22;8771;48.048;7.682;2023-02-15T10:37:41;4.80;79.00
17307;DHT22;8771;48.048;7.682;2023-02-15T10:54:48;4.90;78.70
17307;DHT22;8771;48.048;7.682;2023-02-15T11:00:07;4.80;79.10
17307;DHT22;8771;48.048;7.682;2023-02-15T11:05:39;4.90;79.30
17307;DHT22;8771;48.048;7.682;2023-02-15T11:16:46;5.00;79.00
17307;DHT22;8771;48.048;7.682;2023-02-15T11:21:59;5.00;78.90
17307;DHT22;8771;48.048;7.682;2023-02-15T11:27:12;5.00;79.10
17307;DHT22;8771;48.048;7.682;2023-02-15T11:32:27;5.10;79.00
17307;DHT22;8771;48.048;7.682;2023-02-15T11:37:34;5.30;79.10
17307;DHT22;8771;48.048;7.682;2023-02-15T11:42:39;5.50;78.90
17307;DHT22;8771;48.048;7.682;2023-02-15T11:53:38;5.70;78.60
17307;DHT22;8771;48.048;7.682;2023-02-15T11:58:49;5.90;78.40
17307;DHT22;8771;48.048;7.682;2023-02-15T12:03:58;6.00;78.40
17307;DHT22;8771;48.048;7.682;2023-02-15T12:09:06;6.10;78.30
17307;DHT22;8771;48.048;7.682;2023-02-15T12:14:26;6.20;78.30
17307;DHT22;8771;48.048;7.682;2023-02-15T12:19:38;6.30;78.30
17307;DHT22;8771;48.048;7.682;2023-02-15T12:24:54;6.40;78.20
17307;DHT22;8771;48.048;7.682;2023-02-15T12:30:06;6.50;78.20
17307;DHT22;8771;48.048;7.682;2023-02-15T12:35:16;6.50;78.10
17307;DHT22;8771;48.048;7.682;2023-02-15T12:40:27;6.50;78.30
17307;DHT22;8771;48.048;7.682;2023-02-15T12:45:35;6.60;78.30
17307;DHT22;8771;48.048;7.682;2023-02-15T12:50:41;6.80;78.20
17307;DHT22;8771;48.048;7.682;2023-02-15T12:55:53;6.90;78.00
17307;DHT22;8771;48.048;7.682;2023-02-15T13:01:12;7.10;77.90
17307;DHT22;8771;48.048;7.682;2023-02-15T13:06:20;7.20;77.70
17307;DHT22;8771;48.048;7.682;2023-02-15T13:11:31;7.20;77.60
17307;DHT22;8771;48.048;7.682;2023-02-15T22:55:59;2.20;80.70
17307;DHT22;8771;48.048;7.682;2023-02-15T23:01:14;2.10;80.80
17307;DHT22;8771;48.048;7.682;2023-02-15T23:06:31;2.10;81.00
17307;DHT22;8771;48.048;7.682;2023-02-15T23:11:48;2.10;81.00
17307;DHT22;8771;48.048;7.682;2023-02-15T23:16:58;2.00;81.00
17307;DHT22;8771;48.048;7.682;2023-02-15T23:22:03;2.00;81.00
17307;DHT22;8771;48.048;7.682;2023-02-15T23:27:14;2.00;81.00
17307;DHT22;8771;48.048;7.682;2023-02-15T23:32:36;2.00;81.00
17307;DHT22;8771;48.048;7.682;2023-02-15T23:37:41;2.00;81.00
17307;DHT22;8771;48.048;7.682;2023-02-15T23:42:49;2.00;81.00
17307;DHT22;8771;48.048;7.682;2023-02-15T23:47:52;2.00;81.00
17307;DHT22;8771;48.048;7.682;2023-02-15T23:53:13;2.00;80.90
17307;DHT22;8771;48.048;7.682;2023-02-15T23:58:19;2.00;80.90
